Agana Heights, GU (96910)

11:48 AM ChST on July 28, 2016 (GMT +1000)
Maite | | Change Station

Elev 140 ft 13.48 °N, 144.76 °E | Updated 12 seconds ago

Clear
Clear
88.1 °F
Feels Like 104 °F
N
2.0
Wind Variable Wind from ESE
Gusts 6.0 mph

Today
High -- | Low -- °F
--% Chance of Precip.
Yesterday
High -- | Low -- °F
Precip. -- in
Pressure 29.85 in
Visibility 10.0 miles
Clouds Clear
Heat Index 104 °F
Dew Point 80 °F
Humidity 76%
Rainfall 0.00 in
Snow Depth Not available.
6:05 AM 6:49 PM
Last Quarter, 37% visible
METAR PGUM 280054Z 08008KT 10SM CLR 31/24 A2987 RMK AO2 SLP106 T03060244 $
Pressure 29.85 in
Visibility 10.0 miles
Clouds Clear
Heat Index 104 °F
Dew Point 80 °F
Humidity 76%
Rainfall 0.00 in
Snow Depth Not available.
6:05 AM 6:49 PM
Last Quarter, 37% visible
METAR PGUM 280054Z 08008KT 10SM CLR 31/24 A2987 RMK AO2 SLP106 T03060244 $

10-Day Weather Forecast

Almanac

Astronomy

Jul. 28, 2016 Rise Set
Actual Time
Civil Twilight
Nautical Twilight
Astronomical Twilight
Moon
Length of Visible Light
Length of Day
Tomorrow will be .
, % of the Moon is Illuminated

Today's Extremes

State Highs State Lows

Community

WunderPhotos

Upload Photos

1,928,005 photos uploaded!

WunderBlog® & News

Nearby

Air Quality

  Air Quality AQ Index Pollutant
Not available.

Snow Depth

Station Depth Elevation

Earthquake Activity

City Distance Mag. Time & Date
Minimum magnitude displayed is 2.5.

Coastal Water Temperatures

Place Temperature

Stations

Nearby Weather Stations

Station Location Temp. Windchill Dew Point Humidity Wind Precip. Elev Updated Type
                   

Watches & Warnings

There are currently no watches in effect.